Manila/Ninoy Aquino International Airport

Airport
ICAO code: 
RPLL
IATA Code: 
MNL
Summary
ICAO Region: 
APAC
Territory: 
Location: 
Pasay City and Parañaque City, Manila
Serving: 
Manila
Elevation: 
75 ft
Coordinates: 
Aerial View: 
14° 30' 35.172" N, 121° 0' 47.736" E
Metar
Observation
RPLL 200000Z 15003KT 090V220 8000 -RA BKN022 OVC080 24/23 Q1012 TEMPO 5000 RMK A2988
Station
Ninoy Aquino Inter-National Airport
Date/Time
2022-01-20 00:00:00
Wind direction
150°
Wind speed
03 kts
Lowest cloud amount
broken clouds
Temperature
24°C
Dew point
23°C
Humidity
94%
QNH
1012 hPa
Weather condition
n/a

International airport serving Manila, located along the border between Pasay City and Parañaque City, about 7 km south of Manila proper, and southwest of Makati City.

Climatology

Tropical Monsoon/Savanna climate (Köppen climate classification Am/Aw)

Runways

Designator Length Width Surface Rops
13/31 2258 45 CON Yes/Yes
6/24 3737 60 CON Yes/Yes
Airport map: 
Aerial View: 

Accidents and Serious Incidents at or in the vicinity of RPLL

SKYbrary Partners:

Safety knowledge contributed by: